createdAt,value
2023-03-13T00:00:12.376Z,841.15
2023-03-13T00:01:12.368Z,840.16
2023-03-13T00:02:12.419Z,838.39
2023-03-13T00:03:12.398Z,837.27
2023-03-13T00:04:12.370Z,835.69
2023-03-13T00:05:12.410Z,834.26
2023-03-13T00:06:12.365Z,832.86
2023-03-13T00:07:12.372Z,831.34
2023-03-13T00:08:12.401Z,830.61
2023-03-13T00:09:12.372Z,829.99
2023-03-13T00:10:12.397Z,829.71
2023-03-13T00:11:12.431Z,829.4
2023-03-13T00:12:12.380Z,829.97
2023-03-13T00:13:12.397Z,829.8
2023-03-13T00:14:12.375Z,830.1
2023-03-13T00:15:12.396Z,829.68
2023-03-13T00:16:12.449Z,829.86
2023-03-13T00:17:12.379Z,830.01
2023-03-13T00:18:12.428Z,830.33
2023-03-13T00:19:12.393Z,830.29
2023-03-13T00:20:12.390Z,831.14
2023-03-13T00:21:12.389Z,831.25
2023-03-13T00:22:12.391Z,831.68
2023-03-13T00:23:12.418Z,831.49
2023-03-13T00:24:12.512Z,831.38
2023-03-13T00:25:12.396Z,831.07
2023-03-13T00:26:12.399Z,830.5
2023-03-13T00:27:12.427Z,829.58
2023-03-13T00:28:12.422Z,828.78
2023-03-13T00:29:12.397Z,828.44
2023-03-13T00:30:12.398Z,827.88
2023-03-13T00:31:12.449Z,826.59
2023-03-13T00:32:12.447Z,824.96
2023-03-13T00:33:12.431Z,823.83
2023-03-13T00:34:12.412Z,822.47
2023-03-13T00:35:12.416Z,821.66
2023-03-13T00:36:12.412Z,820.2
2023-03-13T00:37:12.416Z,819.37
2023-03-13T00:38:12.435Z,818.06
2023-03-13T00:39:12.407Z,817.65
2023-03-13T00:40:12.419Z,817.01
2023-03-13T00:41:12.410Z,816.73
2023-03-13T00:42:15.300Z,816.2
2023-03-13T00:43:12.459Z,816.03
2023-03-13T00:44:12.426Z,814.77
2023-03-13T00:45:12.425Z,813.84
2023-03-13T00:46:12.508Z,813.26
2023-03-13T00:47:12.422Z,812.83
2023-03-13T00:48:12.465Z,811.99
2023-03-13T00:49:12.426Z,811.6
2023-03-13T00:50:12.433Z,811.46
2023-03-13T00:51:12.432Z,811.77
2023-03-13T00:52:12.427Z,811.58
2023-03-13T00:53:13.536Z,811.74
2023-03-13T00:54:12.431Z,811.5
2023-03-13T00:55:12.435Z,811.58
2023-03-13T00:56:12.433Z,811.46
2023-03-13T00:57:12.432Z,810.63
2023-03-13T00:58:12.442Z,809.85
2023-03-13T00:59:12.469Z,809
2023-03-13T01:00:12.446Z,808.71
2023-03-13T01:01:12.446Z,808.39
2023-03-13T01:02:12.542Z,808.07
2023-03-13T01:03:12.582Z,807.37
2023-03-13T01:04:13.541Z,806.7
2023-03-13T01:05:12.450Z,806.15
2023-03-13T01:06:12.460Z,805.81
2023-03-13T01:07:12.463Z,805.42
2023-03-13T01:08:12.458Z,806.06
2023-03-13T01:09:12.458Z,806.01
2023-03-13T01:10:12.473Z,806.45
2023-03-13T01:11:12.461Z,806.71
2023-03-13T01:12:12.469Z,807.59
2023-03-13T01:13:12.470Z,808.15
2023-03-13T01:14:12.475Z,809.3
2023-03-13T01:15:12.498Z,810.03
2023-03-13T01:16:12.465Z,811.05
2023-03-13T01:17:12.469Z,811.18
2023-03-13T01:18:12.470Z,810.94
2023-03-13T01:19:13.352Z,811.58
2023-03-13T01:20:12.499Z,811.32
2023-03-13T01:21:12.485Z,811.11
2023-03-13T01:22:12.487Z,811.72
2023-03-13T01:23:12.487Z,812.22
2023-03-13T01:24:12.489Z,812.68
2023-03-13T01:25:12.520Z,813.23
2023-03-13T01:26:12.504Z,814.09
2023-03-13T01:27:12.493Z,814.5
2023-03-13T01:28:12.496Z,815.05
2023-03-13T01:29:12.485Z,815.74
2023-03-13T01:30:12.503Z,815.23
2023-03-13T01:31:12.652Z,814.74
2023-03-13T01:32:12.496Z,815.02
2023-03-13T01:33:12.497Z,814.54
2023-03-13T01:34:12.498Z,814.51
2023-03-13T01:35:12.500Z,815.35
2023-03-13T01:36:12.514Z,816.09
2023-03-13T01:37:12.497Z,816.19
2023-03-13T01:38:12.509Z,817.16
2023-03-13T01:39:12.516Z,817.55
2023-03-13T01:40:12.508Z,818.11
2023-03-13T01:41:12.511Z,818.47
2023-03-13T01:42:12.512Z,818.68
2023-03-13T01:43:17.519Z,818.86
2023-03-13T01:44:12.514Z,818.43
2023-03-13T01:45:12.507Z,817.46
2023-03-13T01:46:12.549Z,816.92
2023-03-13T01:47:15.383Z,815.83
2023-03-13T01:48:12.524Z,815.19
2023-03-13T01:49:12.545Z,814.98
2023-03-13T01:50:12.521Z,814.6
2023-03-13T01:51:12.517Z,814.39
2023-03-13T01:52:12.525Z,813.61
2023-03-13T01:53:12.532Z,813.92
2023-03-13T01:54:12.577Z,813.02
2023-03-13T01:55:12.522Z,812.34
2023-03-13T01:56:12.532Z,812.26
2023-03-13T01:57:12.536Z,811.58
2023-03-13T01:58:15.670Z,811.54
2023-03-13T01:59:12.534Z,811.43
2023-03-13T02:00:12.536Z,811.12
2023-03-13T02:01:12.582Z,811.12
2023-03-13T02:02:12.539Z,810.91
2023-03-13T02:03:12.659Z,810.82
2023-03-13T02:04:12.564Z,810.75
2023-03-13T02:05:12.543Z,811.02
2023-03-13T02:06:12.551Z,811.48
2023-03-13T02:07:12.551Z,812.22
2023-03-13T02:08:12.550Z,812.29
2023-03-13T02:09:15.579Z,811.4
2023-03-13T02:10:12.546Z,811.29
2023-03-13T02:11:12.556Z,810.86
2023-03-13T02:12:12.555Z,811.05
2023-03-13T02:13:12.571Z,811.43
2023-03-13T02:14:12.556Z,810.56
2023-03-13T02:15:12.552Z,810.96
2023-03-13T02:16:12.622Z,811.41
2023-03-13T02:17:12.552Z,811.73
2023-03-13T02:18:12.552Z,811.95
2023-03-13T02:19:12.592Z,813.07
2023-03-13T02:20:12.562Z,814.45
2023-03-13T02:21:12.570Z,814.43
2023-03-13T02:22:12.567Z,815.32
2023-03-13T02:23:12.561Z,815.7
2023-03-13T02:24:12.574Z,816.24
2023-03-13T02:25:12.570Z,817.09
2023-03-13T02:26:12.572Z,817.33
2023-03-13T02:27:12.566Z,818.18
2023-03-13T02:28:12.583Z,818.45
2023-03-13T02:29:12.571Z,819.18
2023-03-13T02:30:12.582Z,820.36
2023-03-13T02:31:12.606Z,820.4
2023-03-13T02:32:12.569Z,820.62
2023-03-13T02:33:12.581Z,821.6
2023-03-13T02:34:12.577Z,821.9
2023-03-13T02:35:12.602Z,822.45
2023-03-13T02:36:12.595Z,822.64
2023-03-13T02:37:12.589Z,822.93
2023-03-13T02:38:12.585Z,823.16
2023-03-13T02:39:12.586Z,824.03
2023-03-13T02:40:12.588Z,823.87
2023-03-13T02:41:12.590Z,824.26
2023-03-13T02:42:12.594Z,824.29
2023-03-13T02:43:12.594Z,824.59
2023-03-13T02:44:12.597Z,824.79
2023-03-13T02:45:12.601Z,825.07
2023-03-13T02:46:12.624Z,825.27
2023-03-13T02:47:12.593Z,825.42
2023-03-13T02:48:12.593Z,826.05
2023-03-13T02:49:12.618Z,826.45
2023-03-13T02:50:12.612Z,827.02
2023-03-13T02:51:12.626Z,827.08
2023-03-13T02:52:12.609Z,827.12
2023-03-13T02:53:12.609Z,827.65
2023-03-13T02:54:12.610Z,828.24
2023-03-13T02:55:12.638Z,828.52
2023-03-13T02:56:12.615Z,828.93
2023-03-13T02:57:12.611Z,828.88
2023-03-13T02:58:12.619Z,829.47
2023-03-13T02:59:12.625Z,829.76
2023-03-13T03:00:12.637Z,829.6
2023-03-13T03:01:12.640Z,830.21
2023-03-13T03:02:12.616Z,830.6
2023-03-13T03:03:12.629Z,830.64
2023-03-13T03:04:12.765Z,831.07
2023-03-13T03:05:12.627Z,831.1
2023-03-13T03:06:12.636Z,831.32
2023-03-13T03:07:12.674Z,831.7
2023-03-13T03:08:12.634Z,831.71
2023-03-13T03:09:12.693Z,832.35
2023-03-13T03:10:12.668Z,832.2
2023-03-13T03:11:12.635Z,832.46
2023-03-13T03:12:12.640Z,832.41
2023-03-13T03:13:12.647Z,832.53
2023-03-13T03:14:12.648Z,832.54
2023-03-13T03:15:12.670Z,832.8
2023-03-13T03:16:12.736Z,832.89
2023-03-13T03:17:12.643Z,832.97
2023-03-13T03:18:12.655Z,833.05
2023-03-13T03:19:12.651Z,833.05
2023-03-13T03:20:13.608Z,833.48
2023-03-13T03:21:12.654Z,833.34
2023-03-13T03:22:12.643Z,833.88
2023-03-13T03:23:12.677Z,833.97
2023-03-13T03:24:12.653Z,834.39
2023-03-13T03:25:12.662Z,834.67
2023-03-13T03:26:12.663Z,835.08
2023-03-13T03:27:12.651Z,835.26
2023-03-13T03:28:12.650Z,835.06
2023-03-13T03:29:12.658Z,836.01
2023-03-13T03:30:12.662Z,836.42
2023-03-13T03:31:15.683Z,836.57
2023-03-13T03:32:12.653Z,836.64
2023-03-13T03:33:12.670Z,836.77
2023-03-13T03:34:12.664Z,836.75
2023-03-13T03:35:12.664Z,837.16
2023-03-13T03:36:12.751Z,836.98
2023-03-13T03:37:12.668Z,837.71
2023-03-13T03:38:12.667Z,837.57
2023-03-13T03:39:12.695Z,837.72
2023-03-13T03:40:12.670Z,838.23
2023-03-13T03:41:12.682Z,838.11
2023-03-13T03:42:12.670Z,838.44
2023-03-13T03:43:12.687Z,838.2
2023-03-13T03:44:12.678Z,838.78
2023-03-13T03:45:12.668Z,838.83
2023-03-13T03:46:12.753Z,838.95
2023-03-13T03:47:12.710Z,838.92
2023-03-13T03:48:12.675Z,839.15
2023-03-13T03:49:12.680Z,839.27
2023-03-13T03:50:12.693Z,839.37
2023-03-13T03:51:12.700Z,839.54
2023-03-13T03:52:12.697Z,839.05
2023-03-13T03:53:12.692Z,838.94
2023-03-13T03:54:12.684Z,838.74
2023-03-13T03:55:12.769Z,839.22
2023-03-13T03:56:12.696Z,839.24
2023-03-13T03:57:12.698Z,839.5
2023-03-13T03:58:12.703Z,839.03
2023-03-13T03:59:12.694Z,839.29
2023-03-13T04:00:12.712Z,839.49
2023-03-13T04:01:12.699Z,839.52
2023-03-13T04:02:12.768Z,839.77
2023-03-13T04:03:12.779Z,839.73
2023-03-13T04:04:12.702Z,840.41
2023-03-13T04:05:12.716Z,840.41
2023-03-13T04:06:12.710Z,840.52
2023-03-13T04:07:12.710Z,841.03
2023-03-13T04:08:12.717Z,841.03
2023-03-13T04:09:12.725Z,841.38
2023-03-13T04:10:12.723Z,841.22
2023-03-13T04:11:12.744Z,841.38
2023-03-13T04:12:12.723Z,841.69
2023-03-13T04:13:12.731Z,841.45
2023-03-13T04:14:15.786Z,841.49
2023-03-13T04:15:12.733Z,841.58
2023-03-13T04:16:12.752Z,841.58
2023-03-13T04:17:12.726Z,841.53
2023-03-13T04:18:12.741Z,841.69
2023-03-13T04:19:12.734Z,842.05
2023-03-13T04:20:12.735Z,842.61
2023-03-13T04:21:12.743Z,842.24
2023-03-13T04:22:12.732Z,843.1
2023-03-13T04:23:12.733Z,843.33
2023-03-13T04:24:12.743Z,843.43
2023-03-13T04:25:15.510Z,843.51
2023-03-13T04:26:12.747Z,843.52
2023-03-13T04:27:12.855Z,843.98
2023-03-13T04:28:12.747Z,843.9
2023-03-13T04:29:12.743Z,844.36
2023-03-13T04:30:12.772Z,844.77
2023-03-13T04:31:12.805Z,845.28
2023-03-13T04:32:12.753Z,845.23
2023-03-13T04:33:12.750Z,845.56
2023-03-13T04:34:12.754Z,845.71
2023-03-13T04:35:12.881Z,845.71
2023-03-13T04:36:15.899Z,846.15
2023-03-13T04:37:12.751Z,846.56
2023-03-13T04:38:12.754Z,846.71
2023-03-13T04:39:12.756Z,846.89
2023-03-13T04:40:12.767Z,847.75
2023-03-13T04:41:12.778Z,847.31
2023-03-13T04:42:12.764Z,847.99
2023-03-13T04:43:12.796Z,848.36
2023-03-13T04:44:12.763Z,848.42
2023-03-13T04:45:12.771Z,848.86
2023-03-13T04:46:12.842Z,848.61
2023-03-13T04:47:12.775Z,849.19
2023-03-13T04:48:12.769Z,848.89
2023-03-13T04:49:12.819Z,849.25
2023-03-13T04:50:12.773Z,849.1
2023-03-13T04:51:12.779Z,849.38
2023-03-13T04:52:12.777Z,849.66
2023-03-13T04:53:12.774Z,850.21
2023-03-13T04:54:12.781Z,850.08
2023-03-13T04:55:12.780Z,850.5
2023-03-13T04:56:12.795Z,850.5
2023-03-13T04:57:12.787Z,851.09
2023-03-13T04:58:12.789Z,851.27
2023-03-13T04:59:12.818Z,851.72
2023-03-13T05:00:12.796Z,852.15
2023-03-13T05:01:12.846Z,852.82
2023-03-13T05:02:12.793Z,852.78
2023-03-13T05:03:12.810Z,853.23
2023-03-13T05:04:12.795Z,853.57
2023-03-13T05:05:12.847Z,853.9
2023-03-13T05:06:12.800Z,854.47
2023-03-13T05:07:12.804Z,855.39
2023-03-13T05:08:12.806Z,855.24
2023-03-13T05:09:12.805Z,856.42
2023-03-13T05:10:12.809Z,856.57
2023-03-13T05:11:12.822Z,856.77
2023-03-13T05:12:12.820Z,857
2023-03-13T05:13:12.816Z,857.26
2023-03-13T05:14:12.809Z,857.5
2023-03-13T05:15:12.847Z,858
2023-03-13T05:16:12.910Z,857.74
2023-03-13T05:17:12.830Z,857.93
2023-03-13T05:18:12.816Z,857.9
2023-03-13T05:19:12.815Z,858.1
2023-03-13T05:20:12.828Z,858.15
2023-03-13T05:21:12.828Z,858.05
2023-03-13T05:22:12.819Z,858.03
2023-03-13T05:23:12.827Z,857.52
2023-03-13T05:24:12.823Z,857.68
2023-03-13T05:25:12.824Z,858.05
2023-03-13T05:26:12.853Z,857.9
2023-03-13T05:27:12.835Z,857.56
2023-03-13T05:28:12.833Z,857.88
2023-03-13T05:29:12.835Z,857.7
2023-03-13T05:30:12.837Z,857.27
2023-03-13T05:31:12.922Z,857.25
2023-03-13T05:32:12.838Z,857.41
2023-03-13T05:33:12.857Z,857.25
2023-03-13T05:34:12.852Z,857.26
2023-03-13T05:35:12.867Z,857.34
2023-03-13T05:36:13.663Z,857.16
2023-03-13T05:37:12.856Z,857.42
2023-03-13T05:38:12.841Z,857.59
2023-03-13T05:39:12.852Z,857.68
2023-03-13T05:40:12.882Z,857.92
2023-03-13T05:41:12.847Z,857.83
2023-03-13T05:42:12.853Z,858.11
2023-03-13T05:43:12.872Z,858.32
2023-03-13T05:44:12.854Z,858.03
2023-03-13T05:45:12.856Z,858.12
2023-03-13T05:46:12.882Z,857.78
2023-03-13T05:47:15.682Z,857.54
2023-03-13T05:48:12.863Z,857.8
2023-03-13T05:49:12.859Z,857.76
2023-03-13T05:50:12.874Z,857.37
2023-03-13T05:51:12.878Z,857.09
2023-03-13T05:52:12.866Z,856.17
2023-03-13T05:53:12.890Z,856.35
2023-03-13T05:54:15.377Z,855.88
2023-03-13T05:55:12.874Z,855.31
2023-03-13T05:56:12.881Z,855.23
2023-03-13T05:57:12.878Z,854.78
2023-03-13T05:58:15.695Z,854.39
2023-03-13T05:59:12.877Z,854.48
2023-03-13T06:00:12.887Z,853.86
2023-03-13T06:01:12.882Z,854.16
2023-03-13T06:02:12.871Z,854.43
2023-03-13T06:03:14.341Z,854.41
2023-03-13T06:04:12.987Z,854.96
2023-03-13T06:05:12.883Z,855.35
2023-03-13T06:06:12.885Z,855.52
2023-03-13T06:07:12.918Z,856.05
2023-03-13T06:08:12.885Z,856.64
2023-03-13T06:09:12.894Z,857.25
2023-03-13T06:10:12.901Z,857.92
2023-03-13T06:11:12.883Z,858.63
2023-03-13T06:12:12.883Z,859.58
2023-03-13T06:13:19.649Z,860.96
2023-03-13T06:14:12.893Z,861.88
2023-03-13T06:15:12.894Z,862.03
2023-03-13T06:16:12.941Z,863.16
2023-03-13T06:17:12.904Z,864.31
2023-03-13T06:18:12.896Z,864.97
2023-03-13T06:19:12.975Z,866.37
2023-03-13T06:20:12.904Z,866.54
2023-03-13T06:21:12.911Z,868.06
2023-03-13T06:22:12.912Z,869.09
2023-03-13T06:23:12.917Z,869.99
2023-03-13T06:24:12.900Z,870.97
2023-03-13T06:25:12.909Z,871.95
2023-03-13T06:26:12.909Z,873.09
2023-03-13T06:27:12.950Z,873.8
2023-03-13T06:28:12.906Z,875.05
2023-03-13T06:29:12.913Z,875.86
2023-03-13T06:30:12.913Z,876.57
2023-03-13T06:31:13.023Z,877.31
2023-03-13T06:32:13.000Z,878.13
2023-03-13T06:33:12.948Z,878.87
2023-03-13T06:34:12.930Z,879.58
2023-03-13T06:35:12.956Z,880.16
2023-03-13T06:36:12.968Z,880.87
2023-03-13T06:37:12.933Z,881.25
2023-03-13T06:38:12.932Z,881.77
2023-03-13T06:39:12.931Z,881.99
2023-03-13T06:40:12.984Z,882.73
2023-03-13T06:41:15.820Z,883.44
2023-03-13T06:42:12.936Z,884.07
2023-03-13T06:43:12.939Z,884.69
2023-03-13T06:44:12.964Z,885.7
2023-03-13T06:45:12.933Z,886.06
2023-03-13T06:46:12.940Z,886.39
2023-03-13T06:47:15.083Z,887.31
2023-03-13T06:48:12.949Z,887.94
2023-03-13T06:49:12.938Z,888.83
2023-03-13T06:50:12.946Z,889.45
2023-03-13T06:51:12.974Z,889.95
2023-03-13T06:52:16.011Z,890.58
2023-03-13T06:53:12.961Z,890.6
2023-03-13T06:54:12.961Z,891.44
2023-03-13T06:55:12.979Z,892.1
2023-03-13T06:56:12.969Z,893
2023-03-13T06:57:12.953Z,893.71
2023-03-13T06:58:25.174Z,894.1
2023-03-13T06:59:12.982Z,895.08
2023-03-13T07:00:12.968Z,896.04
2023-03-13T07:01:13.073Z,896.73
2023-03-13T07:02:12.961Z,897.51
2023-03-13T07:03:15.750Z,898.31
2023-03-13T07:04:13.050Z,899
2023-03-13T07:05:12.971Z,899.8
2023-03-13T07:06:12.979Z,900.47
2023-03-13T07:07:22.263Z,901.04
2023-03-13T07:08:12.976Z,901.92
2023-03-13T07:09:12.982Z,902.65
2023-03-13T07:10:12.982Z,902.95
2023-03-13T07:11:12.979Z,903.97
2023-03-13T07:12:12.986Z,904.55
2023-03-13T07:13:12.983Z,905.31
2023-03-13T07:14:17.233Z,906.25
2023-03-13T07:15:13.014Z,906.94
2023-03-13T07:16:13.196Z,907.77
2023-03-13T07:17:13.036Z,908.29
2023-03-13T07:18:13.010Z,909.3
2023-03-13T07:19:12.995Z,910.73
2023-03-13T07:20:13.127Z,911.08
2023-03-13T07:21:13.013Z,912.31
2023-03-13T07:22:12.999Z,913.25
2023-03-13T07:23:13.036Z,914
2023-03-13T07:24:13.090Z,915.08
2023-03-13T07:25:13.014Z,916.3
2023-03-13T07:26:13.088Z,917.68
2023-03-13T07:27:13.034Z,918.44
2023-03-13T07:28:13.008Z,919.64
2023-03-13T07:29:13.016Z,920.5
2023-03-13T07:30:13.045Z,921.31
2023-03-13T07:31:13.114Z,922.54
2023-03-13T07:32:13.022Z,923.01
2023-03-13T07:33:13.023Z,923.99
2023-03-13T07:34:13.023Z,924.98
2023-03-13T07:35:13.030Z,925.36
2023-03-13T07:36:13.090Z,926.16
2023-03-13T07:37:13.022Z,926.8
2023-03-13T07:38:13.034Z,927.67
2023-03-13T07:39:13.053Z,928.47
2023-03-13T07:40:13.049Z,929.27
2023-03-13T07:41:13.029Z,930.17
2023-03-13T07:42:13.097Z,930.32
2023-03-13T07:43:13.037Z,931.12
2023-03-13T07:44:13.031Z,932.34
2023-03-13T07:45:13.461Z,933.44
2023-03-13T07:46:13.105Z,933.85
2023-03-13T07:47:13.063Z,934.89
2023-03-13T07:48:13.045Z,935.97
2023-03-13T07:49:13.452Z,937.21
2023-03-13T07:50:13.102Z,937.68
2023-03-13T07:51:13.045Z,939.24
2023-03-13T07:52:13.076Z,940.1
2023-03-13T07:53:14.998Z,941.32
2023-03-13T07:54:13.057Z,942.08
2023-03-13T07:55:13.078Z,944.08
2023-03-13T07:56:13.058Z,945.09
2023-03-13T07:57:13.536Z,946.07
2023-03-13T07:58:13.062Z,946.64
2023-03-13T07:59:13.064Z,948.16
2023-03-13T08:00:13.439Z,948.93
2023-03-13T08:01:13.074Z,950.04
2023-03-13T08:02:13.119Z,950.6
2023-03-13T08:03:13.088Z,951.41
2023-03-13T08:04:13.063Z,952.35
2023-03-13T08:05:13.067Z,953.23
2023-03-13T08:06:13.072Z,954.01
2023-03-13T08:07:13.119Z,955.33
2023-03-13T08:08:13.089Z,955.72
2023-03-13T08:09:13.420Z,956.59
2023-03-13T08:10:13.435Z,957.28
2023-03-13T08:11:13.105Z,958.33
2023-03-13T08:12:13.854Z,958.69
2023-03-13T08:13:13.081Z,959.19
2023-03-13T08:14:16.572Z,960.29
2023-03-13T08:15:13.083Z,961.13
2023-03-13T08:16:13.140Z,961.55
2023-03-13T08:17:13.080Z,962.27
2023-03-13T08:18:13.087Z,962.95
2023-03-13T08:19:13.093Z,963.59
2023-03-13T08:20:13.085Z,964.42
2023-03-13T08:21:13.098Z,965.34
2023-03-13T08:22:13.098Z,966.16
2023-03-13T08:23:13.098Z,967.03
2023-03-13T08:24:13.100Z,967.83
2023-03-13T08:25:14.178Z,968.39
2023-03-13T08:26:13.124Z,969.21
2023-03-13T08:27:13.226Z,969.95
2023-03-13T08:28:13.132Z,970.18
2023-03-13T08:29:13.107Z,971.09
2023-03-13T08:30:13.112Z,971.94
2023-03-13T08:31:13.230Z,972.84
2023-03-13T08:32:13.109Z,973.45
2023-03-13T08:33:13.102Z,974.35
2023-03-13T08:34:13.128Z,975.51
2023-03-13T08:35:13.117Z,976.01
2023-03-13T08:36:13.110Z,977.66
2023-03-13T08:37:13.128Z,978.49
2023-03-13T08:38:13.120Z,979.22
2023-03-13T08:39:13.135Z,979.93
2023-03-13T08:40:13.129Z,981.29
2023-03-13T08:41:13.125Z,982.05
2023-03-13T08:42:13.206Z,982.52
2023-03-13T08:43:13.143Z,983.22
2023-03-13T08:44:13.132Z,983.81
2023-03-13T08:45:13.155Z,984.51
2023-03-13T08:46:13.196Z,985.41
2023-03-13T08:47:13.211Z,985.73
2023-03-13T08:48:13.142Z,987.1
2023-03-13T08:49:13.145Z,987.96
2023-03-13T08:50:13.134Z,989.21
2023-03-13T08:51:13.177Z,990.66
2023-03-13T08:52:13.156Z,991.83
2023-03-13T08:53:13.151Z,992.97
2023-03-13T08:54:13.201Z,994.18
2023-03-13T08:55:13.150Z,995.48
2023-03-13T08:56:13.161Z,996.86
2023-03-13T08:57:13.147Z,997.88
2023-03-13T08:58:13.157Z,999.3
2023-03-13T08:59:13.198Z,1000.34
2023-03-13T09:00:13.183Z,1001.67
2023-03-13T09:01:13.164Z,1003.28
2023-03-13T09:02:13.182Z,1004.54
2023-03-13T09:03:13.177Z,1005.73
2023-03-13T09:04:13.245Z,1006.7
2023-03-13T09:05:13.187Z,1008.18
2023-03-13T09:06:13.179Z,1009
2023-03-13T09:07:13.174Z,1010.22
2023-03-13T09:08:15.930Z,1011.45
2023-03-13T09:09:15.936Z,1012.77
2023-03-13T09:10:13.182Z,1014.04
2023-03-13T09:11:13.258Z,1015.61
2023-03-13T09:12:24.897Z,1017.1
2023-03-13T09:13:13.189Z,1018.58
2023-03-13T09:14:13.182Z,1020.4
2023-03-13T09:15:13.213Z,1021.8
2023-03-13T09:16:13.258Z,1023.65
2023-03-13T09:17:13.195Z,1025.01
2023-03-13T09:18:13.235Z,1026.56
2023-03-13T09:19:16.219Z,1027.88
2023-03-13T09:20:13.190Z,1028.91
2023-03-13T09:21:13.195Z,1030.23
2023-03-13T09:22:13.216Z,1031.38
2023-03-13T09:23:13.223Z,1033.21
2023-03-13T09:24:13.226Z,1034.16
2023-03-13T09:25:13.218Z,1035.39
2023-03-13T09:26:13.209Z,1036.62
2023-03-13T09:27:13.205Z,1037.9
2023-03-13T09:28:13.237Z,1038.91
2023-03-13T09:29:13.213Z,1039.85
2023-03-13T09:30:13.408Z,1041.34
2023-03-13T09:31:13.410Z,1042.79
2023-03-13T09:32:13.223Z,1044.34
2023-03-13T09:33:13.245Z,1045.84
2023-03-13T09:34:13.218Z,1047.24
2023-03-13T09:35:13.223Z,1048.78
2023-03-13T09:36:13.292Z,1050.22
2023-03-13T09:37:13.227Z,1051.66
2023-03-13T09:38:13.236Z,1052.91
2023-03-13T09:39:13.222Z,1054.42
2023-03-13T09:40:13.228Z,1055.96
2023-03-13T09:41:13.232Z,1057.75
2023-03-13T09:42:13.242Z,1059.38
2023-03-13T09:43:13.264Z,1060.77
2023-03-13T09:44:13.269Z,1062.27
2023-03-13T09:45:13.252Z,1063.86
2023-03-13T09:46:13.356Z,1065.2
2023-03-13T09:47:13.265Z,1066.61
2023-03-13T09:48:13.272Z,1067.9
2023-03-13T09:49:13.252Z,1069.07
2023-03-13T09:50:13.243Z,1070.36
2023-03-13T09:51:13.243Z,1071.4
2023-03-13T09:52:13.249Z,1072.11
2023-03-13T09:53:13.280Z,1073.04
2023-03-13T09:54:13.249Z,1073.77
2023-03-13T09:55:13.250Z,1074.41
2023-03-13T09:56:13.256Z,1074.86
2023-03-13T09:57:13.254Z,1075.3
2023-03-13T09:58:13.280Z,1075.55
2023-03-13T09:59:13.262Z,1075.64
2023-03-13T10:00:13.267Z,1075.78
2023-03-13T10:01:13.292Z,1075.71
2023-03-13T10:02:13.282Z,1075.56
2023-03-13T10:03:13.336Z,1075.31
2023-03-13T10:04:13.425Z,1075.41
2023-03-13T10:05:13.284Z,1075.51
2023-03-13T10:06:13.273Z,1075.55
2023-03-13T10:07:13.278Z,1075.37
2023-03-13T10:08:13.308Z,1075.31
2023-03-13T10:09:13.283Z,1075.44
2023-03-13T10:10:13.938Z,1075.08
2023-03-13T10:11:13.275Z,1075.1
2023-03-13T10:12:13.271Z,1074.89
2023-03-13T10:13:13.302Z,1074.71
2023-03-13T10:14:13.282Z,1074.53
2023-03-13T10:15:13.283Z,1074.27
2023-03-13T10:16:13.333Z,1074.14
2023-03-13T10:17:13.280Z,1073.77
2023-03-13T10:18:13.368Z,1073.74
2023-03-13T10:19:13.317Z,1073.22
2023-03-13T10:20:13.298Z,1072.97
2023-03-13T10:21:13.321Z,1072.87
2023-03-13T10:22:13.296Z,1072.5
2023-03-13T10:23:13.310Z,1072.3
2023-03-13T10:24:13.294Z,1072.24
2023-03-13T10:25:13.296Z,1072.01
2023-03-13T10:26:13.299Z,1072.05
2023-03-13T10:27:13.299Z,1071.76
2023-03-13T10:28:13.323Z,1071.8
2023-03-13T10:29:13.303Z,1071.59
2023-03-13T10:30:13.304Z,1071.59
2023-03-13T10:31:13.358Z,1071.24
2023-03-13T10:32:13.311Z,1071.05
2023-03-13T10:33:13.327Z,1070.77
2023-03-13T10:34:13.318Z,1070.66
2023-03-13T10:35:13.362Z,1070.66
2023-03-13T10:36:13.363Z,1070.56
2023-03-13T10:37:13.327Z,1070.49
2023-03-13T10:38:13.365Z,1070.72
2023-03-13T10:39:13.335Z,1070.35
2023-03-13T10:40:13.343Z,1070.39
2023-03-13T10:41:16.351Z,1070.15
2023-03-13T10:42:13.333Z,1070.54
2023-03-13T10:43:13.366Z,1070.72
2023-03-13T10:44:13.372Z,1070.8
2023-03-13T10:45:13.334Z,1070.96
2023-03-13T10:46:13.360Z,1070.9
2023-03-13T10:47:13.355Z,1070.85
2023-03-13T10:48:13.363Z,1070.73
2023-03-13T10:49:13.346Z,1070.73
2023-03-13T10:50:13.332Z,1070.72
2023-03-13T10:51:13.358Z,1070.91
2023-03-13T10:52:14.430Z,1071.18
2023-03-13T10:53:13.370Z,1071.4
2023-03-13T10:54:13.352Z,1071.64
2023-03-13T10:55:13.344Z,1071.69
2023-03-13T10:56:13.352Z,1071.35
2023-03-13T10:57:13.347Z,1071.25
2023-03-13T10:58:13.379Z,1071.33
2023-03-13T10:59:13.353Z,1071.32
2023-03-13T11:00:13.362Z,1071.13
2023-03-13T11:01:13.359Z,1071.32
2023-03-13T11:02:13.377Z,1071.44
2023-03-13T11:03:13.632Z,1071.37
2023-03-13T11:04:13.362Z,1071.67
2023-03-13T11:05:13.639Z,1071.72
2023-03-13T11:06:13.367Z,1072.09
2023-03-13T11:07:13.394Z,1072.39
2023-03-13T11:08:13.472Z,1072.92
2023-03-13T11:09:13.372Z,1073.71
2023-03-13T11:10:13.380Z,1074.39
2023-03-13T11:11:13.382Z,1075.03
2023-03-13T11:12:13.396Z,1075.85
2023-03-13T11:13:13.432Z,1076.98
2023-03-13T11:14:13.383Z,1077.99
2023-03-13T11:15:13.424Z,1078.57
2023-03-13T11:16:13.419Z,1079.31
2023-03-13T11:17:13.425Z,1079.89
2023-03-13T11:18:13.428Z,1081.14
2023-03-13T11:19:13.384Z,1082.01
2023-03-13T11:20:13.404Z,1083.06
2023-03-13T11:21:18.275Z,1084.08
2023-03-13T11:22:13.459Z,1084.53
2023-03-13T11:23:13.465Z,1085.05
2023-03-13T11:24:13.412Z,1085.56
2023-03-13T11:25:13.413Z,1086.06
2023-03-13T11:26:13.398Z,1086.57
2023-03-13T11:27:13.439Z,1087.39
2023-03-13T11:28:13.456Z,1087.5
2023-03-13T11:29:13.411Z,1088.11
2023-03-13T11:30:13.410Z,1088.33
2023-03-13T11:31:13.496Z,1088.58
2023-03-13T11:32:13.418Z,1088.75
2023-03-13T11:33:13.439Z,1089.02
2023-03-13T11:34:13.437Z,1089
2023-03-13T11:35:16.307Z,1088.92
2023-03-13T11:36:13.459Z,1088.65
2023-03-13T11:37:13.421Z,1088.39
2023-03-13T11:38:13.443Z,1088.23
2023-03-13T11:39:13.494Z,1087.96
2023-03-13T11:40:13.438Z,1087.76
2023-03-13T11:41:13.455Z,1087.25
2023-03-13T11:42:13.429Z,1087.27
2023-03-13T11:43:24.383Z,1086.92
2023-03-13T11:44:13.453Z,1086.86
2023-03-13T11:45:13.428Z,1086.63
2023-03-13T11:46:16.374Z,1086.55
2023-03-13T11:47:13.524Z,1086.43
2023-03-13T11:48:13.462Z,1086.21
2023-03-13T11:49:13.446Z,1085.96
2023-03-13T11:50:13.445Z,1085.6
2023-03-13T11:51:13.533Z,1085.58
2023-03-13T11:52:13.457Z,1085.52
2023-03-13T11:53:13.501Z,1085.42
2023-03-13T11:54:13.450Z,1085.31
2023-03-13T11:55:13.479Z,1085.4
2023-03-13T11:56:13.492Z,1085.28
2023-03-13T11:57:13.523Z,1085.42
2023-03-13T11:58:13.479Z,1086.07
2023-03-13T11:59:13.459Z,1086.32
2023-03-13T12:00:13.456Z,1087.07
2023-03-13T12:01:13.494Z,1087.85
2023-03-13T12:02:13.556Z,1088.66
2023-03-13T12:03:13.543Z,1089.29
2023-03-13T12:04:13.499Z,1089.53
2023-03-13T12:05:13.513Z,1089.99
2023-03-13T12:06:27.210Z,1090.35
2023-03-13T12:07:13.490Z,1090.74
2023-03-13T12:08:13.513Z,1091.16
2023-03-13T12:09:13.477Z,1091.72
2023-03-13T12:10:13.482Z,1092.25
2023-03-13T12:11:13.516Z,1093.02
2023-03-13T12:12:13.483Z,1093.93
2023-03-13T12:13:13.501Z,1094.75
2023-03-13T12:14:13.482Z,1095.55
2023-03-13T12:15:13.498Z,1096.55
2023-03-13T12:16:13.576Z,1098.19
2023-03-13T12:17:13.532Z,1099
2023-03-13T12:18:13.515Z,1099.81
2023-03-13T12:19:13.488Z,1100.42
2023-03-13T12:20:13.495Z,1100.89
2023-03-13T12:21:13.497Z,1101.25
2023-03-13T12:22:13.556Z,1101.64
2023-03-13T12:23:13.522Z,1102
2023-03-13T12:24:13.497Z,1102.18
2023-03-13T12:25:13.533Z,1102.39